createdAt,value
2022-10-05T00:00:58.095Z,85.61
2022-10-05T00:03:26.437Z,85.98
2022-10-05T00:05:53.791Z,86.28
2022-10-05T00:08:23.443Z,88.70
2022-10-05T00:10:51.269Z,90.10
2022-10-05T00:13:26.521Z,89.46
2022-10-05T00:16:18.897Z,89.83
2022-10-05T00:18:54.414Z,88.64
2022-10-05T00:21:26.713Z,85.75
2022-10-05T00:23:56.926Z,86.57
2022-10-05T00:26:26.497Z,86.83
2022-10-05T00:28:54.552Z,88.47
2022-10-05T00:31:24.649Z,87.64
2022-10-05T00:33:51.546Z,87.26
2022-10-05T00:36:18.226Z,86.94
2022-10-05T00:38:45.302Z,87.00
2022-10-05T00:41:17.962Z,86.12
2022-10-05T00:43:50.235Z,87.17
2022-10-05T00:46:29.013Z,87.62
2022-10-05T00:49:14.700Z,86.65
2022-10-05T00:51:51.993Z,85.16
2022-10-05T00:54:44.105Z,87.32
2022-10-05T00:57:34.057Z,85.26
2022-10-05T01:00:10.391Z,85.87
2022-10-05T01:03:11.796Z,86.83
2022-10-05T01:05:41.451Z,86.41
2022-10-05T01:08:19.780Z,85.46
2022-10-05T01:11:12.246Z,84.43
2022-10-05T01:13:50.878Z,85.47
2022-10-05T01:16:40.522Z,86.24
2022-10-05T01:19:30.367Z,85.98
2022-10-05T01:22:30.501Z,86.02
2022-10-05T01:25:08.401Z,84.34
2022-10-05T01:28:02.268Z,85.27
2022-10-05T01:30:38.119Z,85.16
2022-10-05T01:33:10.694Z,86.39
2022-10-05T01:35:49.105Z,87.96
2022-10-05T01:38:37.592Z,87.84
2022-10-05T01:41:13.500Z,84.85
2022-10-05T01:44:00.338Z,83.23
2022-10-05T01:46:41.624Z,85.56
2022-10-05T01:49:47.539Z,86.21
2022-10-05T01:52:27.331Z,86.86
2022-10-05T01:54:59.954Z,86.64
2022-10-05T01:57:54.636Z,86.89
2022-10-05T02:00:21.300Z,87.66
2022-10-05T02:02:51.972Z,85.91
2022-10-05T02:05:43.932Z,87.36
2022-10-05T02:08:31.362Z,87.20
2022-10-05T02:11:24.335Z,87.86
2022-10-05T02:13:58.208Z,89.52
2022-10-05T02:16:43.399Z,90.41
2022-10-05T02:19:39.733Z,89.55
2022-10-05T02:22:15.503Z,88.25
2022-10-05T02:24:51.022Z,87.33
2022-10-05T02:27:32.467Z,88.73
2022-10-05T02:30:04.913Z,88.70
2022-10-05T02:32:40.283Z,87.88
2022-10-05T02:35:14.015Z,88.97
2022-10-05T02:37:53.631Z,88.41
2022-10-05T02:40:30.811Z,89.52
2022-10-05T02:43:06.130Z,93.65
2022-10-05T02:45:48.122Z,91.86
2022-10-05T02:49:02.430Z,90.20
2022-10-05T02:52:09.760Z,88.39
2022-10-05T02:55:02.434Z,86.74
2022-10-05T02:57:39.911Z,88.18
2022-10-05T03:00:21.913Z,86.19
2022-10-05T03:03:14.570Z,86.87
2022-10-05T03:05:48.666Z,86.93
2022-10-05T03:08:19.999Z,87.43
2022-10-05T03:11:00.432Z,86.87
2022-10-05T03:13:48.002Z,88.75
2022-10-05T03:16:39.145Z,88.12
2022-10-05T03:19:10.242Z,86.87
2022-10-05T03:21:52.033Z,87.75
2022-10-05T03:24:49.638Z,87.90
2022-10-05T03:27:43.477Z,87.91
2022-10-05T03:30:17.617Z,91.20
2022-10-05T03:33:20.179Z,90.72
2022-10-05T03:35:46.696Z,90.05
2022-10-05T03:38:43.860Z,89.44
2022-10-05T03:41:19.489Z,90.29
2022-10-05T03:44:00.902Z,89.48
2022-10-05T03:46:32.805Z,89.62
2022-10-05T03:49:11.538Z,90.13
2022-10-05T03:51:47.263Z,89.82
2022-10-05T03:54:29.471Z,90.67
2022-10-05T03:57:10.638Z,91.10
2022-10-05T04:00:25.668Z,90.18
2022-10-05T04:03:02.243Z,89.60
2022-10-05T04:05:33.799Z,89.89
2022-10-05T04:08:06.926Z,89.66
2022-10-05T04:10:42.564Z,90.05
2022-10-05T04:13:21.031Z,91.03
2022-10-05T04:16:01.304Z,88.64
2022-10-05T04:18:59.893Z,87.72
2022-10-05T04:21:32.572Z,88.02
2022-10-05T04:24:04.450Z,88.63
2022-10-05T04:26:36.459Z,90.13
2022-10-05T04:29:39.369Z,89.44
2022-10-05T04:32:41.784Z,88.37
2022-10-05T04:35:19.483Z,86.91
2022-10-05T04:38:04.180Z,86.05
2022-10-05T04:41:08.374Z,89.40
2022-10-05T04:44:21.915Z,88.16
2022-10-05T04:47:07.092Z,87.80
2022-10-05T04:49:42.597Z,88.25
2022-10-05T04:52:43.289Z,90.20
2022-10-05T04:55:23.003Z,88.78
2022-10-05T04:58:10.745Z,88.06
2022-10-05T05:00:53.720Z,86.45
2022-10-05T05:03:39.579Z,87.39
2022-10-05T05:06:18.010Z,89.23
2022-10-05T05:09:10.840Z,90.75
2022-10-05T05:12:14.625Z,89.94
2022-10-05T05:14:47.261Z,89.00
2022-10-05T05:17:32.363Z,89.04
2022-10-05T05:20:15.487Z,89.29
2022-10-05T05:22:58.776Z,88.55
2022-10-05T05:25:48.319Z,88.09
2022-10-05T05:28:27.281Z,88.58
2022-10-05T05:31:10.461Z,88.20
2022-10-05T05:34:07.850Z,89.51
2022-10-05T05:36:49.538Z,90.78
2022-10-05T05:39:51.500Z,90.06
2022-10-05T05:42:41.043Z,90.26
2022-10-05T05:45:25.663Z,90.94
2022-10-05T05:47:54.644Z,92.17
2022-10-05T05:50:34.044Z,90.99
2022-10-05T05:53:17.585Z,92.15
2022-10-05T05:55:58.106Z,92.90
2022-10-05T05:58:33.800Z,92.53
2022-10-05T06:01:33.231Z,92.82
2022-10-05T06:04:23.223Z,94.49
2022-10-05T06:06:53.064Z,96.16
2022-10-05T06:09:23.521Z,96.74
2022-10-05T06:12:12.577Z,97.45
2022-10-05T06:14:46.343Z,97.02
2022-10-05T06:17:35.489Z,98.94
2022-10-05T06:20:05.677Z,100.00
2022-10-05T06:22:45.673Z,100.00
2022-10-05T06:25:12.209Z,100.00
2022-10-05T06:28:01.831Z,100.00
2022-10-05T06:30:40.126Z,100.00
2022-10-05T06:33:12.691Z,100.00
2022-10-05T06:35:58.029Z,100.00
2022-10-05T06:39:02.033Z,100.00
2022-10-05T06:42:04.865Z,100.00
2022-10-05T06:44:39.774Z,100.00
2022-10-05T06:47:22.906Z,100.00
2022-10-05T06:50:15.062Z,100.00
2022-10-05T06:53:18.665Z,100.00
2022-10-05T06:56:06.299Z,100.00
2022-10-05T06:58:58.912Z,100.00
2022-10-05T07:02:01.445Z,100.00
2022-10-05T07:04:49.505Z,100.00
2022-10-05T07:07:42.183Z,100.00
2022-10-05T07:10:17.487Z,100.00
2022-10-05T07:13:04.317Z,100.00
2022-10-05T07:16:11.067Z,100.00
2022-10-05T07:18:59.348Z,100.00
2022-10-05T07:21:41.471Z,100.00
2022-10-05T07:24:22.903Z,100.00
2022-10-05T07:27:14.418Z,100.00
2022-10-05T07:30:03.816Z,100.00
2022-10-05T07:32:36.724Z,100.00
2022-10-05T07:35:34.726Z,100.00
2022-10-05T07:38:35.345Z,100.00
2022-10-05T07:41:13.932Z,100.00
2022-10-05T07:44:04.363Z,99.68
2022-10-05T07:46:49.983Z,100.00
2022-10-05T07:49:41.011Z,100.00
2022-10-05T07:52:24.147Z,100.00
2022-10-05T07:55:05.894Z,98.41
2022-10-05T07:57:59.995Z,99.55
2022-10-05T08:00:44.978Z,96.04
2022-10-05T08:03:23.984Z,93.55
2022-10-05T08:05:50.616Z,95.67
2022-10-05T08:08:32.196Z,95.42
2022-10-05T08:11:19.298Z,94.70
2022-10-05T08:13:56.436Z,94.69
2022-10-05T08:16:27.800Z,93.87
2022-10-05T08:19:00.044Z,90.78
2022-10-05T08:21:36.214Z,88.52
2022-10-05T08:24:17.626Z,88.28
2022-10-05T08:26:55.412Z,85.66
2022-10-05T08:29:31.704Z,85.24
2022-10-05T08:32:18.826Z,82.78
2022-10-05T08:34:45.345Z,87.86
2022-10-05T08:37:11.876Z,86.80
2022-10-05T08:39:58.950Z,85.50
2022-10-05T08:42:46.719Z,83.46
2022-10-05T08:45:16.224Z,83.68
2022-10-05T08:47:42.755Z,83.01
2022-10-05T08:50:18.321Z,80.46
2022-10-05T08:53:16.194Z,82.93
2022-10-05T08:55:55.665Z,82.24
2022-10-05T08:58:47.130Z,76.70
2022-10-05T09:01:55.050Z,77.89
2022-10-05T09:04:46.430Z,76.50
2022-10-05T09:07:26.457Z,74.75
2022-10-05T09:10:33.376Z,78.00
2022-10-05T09:13:26.413Z,77.21
2022-10-05T09:16:11.201Z,73.46
2022-10-05T09:18:53.805Z,75.09
2022-10-05T09:21:29.264Z,76.37
2022-10-05T09:24:15.605Z,74.32
2022-10-05T09:27:01.529Z,73.47
2022-10-05T09:29:52.813Z,70.32
2022-10-05T09:32:48.306Z,72.88
2022-10-05T09:35:29.635Z,71.82
2022-10-05T09:38:04.906Z,71.42
2022-10-05T09:40:51.906Z,71.83
2022-10-05T09:43:30.781Z,70.09
2022-10-05T09:46:50.695Z,70.37
2022-10-05T09:49:59.015Z,70.81
2022-10-05T09:53:01.560Z,70.90
2022-10-05T09:55:37.112Z,69.84
2022-10-05T09:58:40.542Z,70.50
2022-10-05T10:01:37.974Z,69.95
2022-10-05T10:04:15.628Z,69.21
2022-10-05T10:07:11.504Z,71.22
2022-10-05T10:10:11.712Z,72.99
2022-10-05T10:12:41.282Z,73.70
2022-10-05T10:15:23.018Z,67.96
2022-10-05T10:17:58.263Z,70.05
2022-10-05T10:20:43.450Z,71.10
2022-10-05T10:23:54.158Z,70.94
2022-10-05T10:26:39.554Z,70.49
2022-10-05T10:29:11.758Z,71.38
2022-10-05T10:31:48.063Z,66.54
2022-10-05T10:34:41.733Z,65.30
2022-10-05T10:37:29.592Z,67.55
2022-10-05T10:40:28.468Z,66.60
2022-10-05T10:42:57.893Z,66.56
2022-10-05T10:45:51.861Z,65.28
2022-10-05T10:48:18.428Z,68.13
2022-10-05T10:51:03.934Z,66.50
2022-10-05T10:54:03.728Z,68.23
2022-10-05T10:56:47.707Z,64.27
2022-10-05T10:59:48.331Z,63.52
2022-10-05T11:02:23.785Z,63.55
2022-10-05T11:05:10.251Z,66.27
2022-10-05T11:07:58.292Z,66.86
2022-10-05T11:10:30.850Z,65.59
2022-10-05T11:13:15.799Z,64.97
2022-10-05T11:15:51.555Z,61.55
2022-10-05T11:18:18.129Z,63.43
2022-10-05T11:21:09.913Z,64.37
2022-10-05T11:23:38.957Z,66.25
2022-10-05T11:26:37.375Z,63.00
2022-10-05T11:29:25.809Z,63.94
2022-10-05T11:32:16.643Z,62.17
2022-10-05T11:35:04.392Z,63.27
2022-10-05T11:37:51.876Z,65.47
2022-10-05T11:40:36.102Z,63.70
2022-10-05T11:43:17.582Z,63.33
2022-10-05T11:46:22.639Z,66.50
2022-10-05T11:48:58.039Z,60.81
2022-10-05T11:51:34.534Z,61.72
2022-10-05T11:54:13.377Z,62.47
2022-10-05T11:57:03.240Z,67.48
2022-10-05T11:59:50.931Z,62.14
2022-10-05T12:02:43.891Z,63.52
2022-10-05T12:05:36.486Z,61.72
2022-10-05T12:08:09.064Z,63.79
2022-10-05T12:10:57.067Z,65.37
2022-10-05T12:13:50.439Z,62.35
2022-10-05T12:16:24.457Z,58.59
2022-10-05T12:18:51.031Z,60.43
2022-10-05T12:21:25.447Z,58.86
2022-10-05T12:23:57.898Z,61.34
2022-10-05T12:26:44.429Z,60.87
2022-10-05T12:29:28.517Z,61.08
2022-10-05T12:32:11.026Z,60.37
2022-10-05T12:34:49.452Z,59.22
2022-10-05T12:37:15.983Z,61.59
2022-10-05T12:40:00.199Z,59.85
2022-10-05T12:42:41.640Z,60.24
2022-10-05T12:45:17.006Z,58.34
2022-10-05T12:47:43.535Z,60.43
2022-10-05T12:50:18.982Z,61.98
2022-10-05T12:53:01.590Z,59.99
2022-10-05T12:55:54.515Z,60.05
2022-10-05T12:58:44.213Z,59.13
2022-10-05T13:01:32.471Z,60.73
2022-10-05T13:03:58.990Z,57.54
2022-10-05T13:06:52.800Z,61.58
2022-10-05T13:09:54.487Z,56.66
2022-10-05T13:12:52.384Z,57.34
2022-10-05T13:15:39.149Z,59.20
2022-10-05T13:18:20.846Z,60.61
2022-10-05T13:20:57.806Z,58.59
2022-10-05T13:23:42.942Z,57.13
2022-10-05T13:26:18.173Z,57.26
2022-10-05T13:29:10.902Z,60.42
2022-10-05T13:31:46.527Z,57.12
2022-10-05T13:34:33.882Z,58.06
2022-10-05T13:37:06.213Z,58.29
2022-10-05T13:39:35.775Z,56.73
2022-10-05T13:42:34.220Z,57.20
2022-10-05T13:45:05.121Z,57.05
2022-10-05T13:47:46.494Z,58.74
2022-10-05T13:50:21.157Z,57.34
2022-10-05T13:53:15.704Z,59.73
2022-10-05T13:56:12.431Z,55.86
2022-10-05T13:58:47.387Z,60.38
2022-10-05T14:01:32.157Z,55.97
2022-10-05T14:04:15.572Z,58.31
2022-10-05T14:06:42.208Z,55.92
2022-10-05T14:09:30.714Z,56.07
2022-10-05T14:12:03.206Z,56.61
2022-10-05T14:14:32.894Z,56.83
2022-10-05T14:19:46.292Z,58.30
2022-10-05T14:22:20.108Z,57.27
2022-10-05T14:24:57.170Z,56.45
2022-10-05T14:27:30.357Z,57.10
2022-10-05T14:30:10.896Z,57.14
2022-10-05T14:32:55.371Z,56.27
2022-10-05T14:35:24.414Z,56.07
2022-10-05T14:37:51.981Z,56.04
2022-10-05T14:40:25.140Z,57.70
2022-10-05T14:42:51.971Z,56.75
2022-10-05T14:45:22.296Z,58.70
2022-10-05T14:48:03.880Z,57.05
2022-10-05T14:50:31.629Z,56.47
2022-10-05T14:53:19.918Z,56.62
2022-10-05T14:56:03.282Z,56.58
2022-10-05T14:59:00.838Z,56.23
2022-10-05T15:01:27.491Z,59.47
2022-10-05T15:04:12.980Z,62.83
2022-10-05T15:07:00.605Z,61.81
2022-10-05T15:09:51.440Z,62.03
2022-10-05T15:12:31.649Z,62.67
2022-10-05T15:15:33.914Z,62.49
2022-10-05T15:18:06.096Z,58.04
2022-10-05T15:20:50.491Z,59.65
2022-10-05T15:23:27.549Z,58.55
2022-10-05T15:26:38.826Z,60.77
2022-10-05T15:29:17.632Z,58.33
2022-10-05T15:32:05.434Z,60.77
2022-10-05T15:34:34.936Z,62.20
2022-10-05T15:37:19.882Z,63.56
2022-10-05T15:39:56.609Z,66.24
2022-10-05T15:42:40.322Z,67.43
2022-10-05T15:45:36.523Z,69.10
2022-10-05T15:48:05.614Z,70.59
2022-10-05T15:50:54.029Z,69.12
2022-10-05T15:53:34.819Z,69.08
2022-10-05T15:56:19.828Z,68.88
2022-10-05T15:59:06.894Z,71.13
2022-10-05T16:01:33.530Z,70.55
2022-10-05T16:04:37.775Z,70.41
2022-10-05T16:07:17.545Z,70.24
2022-10-05T16:10:09.122Z,70.94
2022-10-05T16:12:58.081Z,69.51
2022-10-05T16:15:36.736Z,70.15
2022-10-05T16:18:25.381Z,71.00
2022-10-05T16:21:07.253Z,70.48
2022-10-05T16:23:36.915Z,70.67
2022-10-05T16:26:10.330Z,71.47
2022-10-05T16:29:01.470Z,73.39
2022-10-05T16:31:31.060Z,71.26
2022-10-05T16:34:30.724Z,72.80
2022-10-05T16:37:32.799Z,73.03
2022-10-05T16:40:21.308Z,72.46
2022-10-05T16:43:04.707Z,72.72
2022-10-05T16:45:45.129Z,72.38
2022-10-05T16:48:38.907Z,72.61
2022-10-05T16:51:30.250Z,72.66
2022-10-05T16:54:12.649Z,73.43
2022-10-05T16:56:50.617Z,75.02
2022-10-05T16:59:36.059Z,74.73
2022-10-05T17:02:11.163Z,74.26
2022-10-05T17:04:43.690Z,75.10
2022-10-05T17:10:48.726Z,73.13
2022-10-05T17:13:40.698Z,74.97
2022-10-05T17:16:26.587Z,72.95
2022-10-05T17:19:14.849Z,72.36
2022-10-05T17:21:59.702Z,73.11
2022-10-05T17:24:50.808Z,74.59
2022-10-05T17:27:52.488Z,74.79
2022-10-05T17:30:27.630Z,75.73
2022-10-05T17:32:58.011Z,74.67
2022-10-05T17:36:11.221Z,73.02
2022-10-05T17:38:47.407Z,74.89
2022-10-05T17:41:27.834Z,75.27
2022-10-05T17:44:06.616Z,74.60
2022-10-05T17:46:41.171Z,74.96
2022-10-05T17:49:21.206Z,74.67
2022-10-05T17:51:47.780Z,75.28
2022-10-05T17:54:50.932Z,75.64
2022-10-05T17:57:23.957Z,75.76
2022-10-05T17:59:53.258Z,75.90
2022-10-05T18:02:19.837Z,75.23
2022-10-05T18:05:10.971Z,77.82
2022-10-05T18:07:39.255Z,76.53
2022-10-05T18:10:12.222Z,76.49
2022-10-05T18:13:10.583Z,75.86
2022-10-05T18:15:42.627Z,75.95
2022-10-05T18:18:34.085Z,76.20
2022-10-05T18:21:15.976Z,76.38
2022-10-05T18:23:49.323Z,76.72
2022-10-05T18:26:35.665Z,76.36
2022-10-05T18:29:21.697Z,75.97
2022-10-05T18:32:00.787Z,76.43
2022-10-05T18:34:43.896Z,76.28
2022-10-05T18:37:43.572Z,76.59
2022-10-05T18:40:39.243Z,75.79
2022-10-05T18:43:27.647Z,77.29
2022-10-05T18:46:06.354Z,77.08
2022-10-05T18:48:54.778Z,77.70
2022-10-05T18:51:36.571Z,77.47
2022-10-05T18:54:21.856Z,77.43
2022-10-05T18:56:52.819Z,78.34
2022-10-05T18:59:40.424Z,77.92
2022-10-05T19:02:09.670Z,78.22
2022-10-05T19:04:54.380Z,78.65
2022-10-05T19:07:35.862Z,78.35
2022-10-05T19:10:37.283Z,78.31
2022-10-05T19:13:22.207Z,78.53
2022-10-05T19:15:57.704Z,79.05
2022-10-05T19:18:40.835Z,78.74
2022-10-05T19:21:33.875Z,78.68
2022-10-05T19:24:21.657Z,78.27
2022-10-05T19:27:18.811Z,79.57
2022-10-05T19:29:51.159Z,79.17
2022-10-05T19:32:32.629Z,79.47
2022-10-05T19:35:11.544Z,80.41
2022-10-05T19:38:08.022Z,80.65
2022-10-05T19:40:45.424Z,80.56
2022-10-05T19:43:24.010Z,79.50
2022-10-05T19:46:17.676Z,79.72
2022-10-05T19:48:50.347Z,80.17
2022-10-05T19:51:36.834Z,79.89
2022-10-05T19:54:21.871Z,80.06
2022-10-05T19:56:51.959Z,80.93
2022-10-05T19:59:21.170Z,81.41
2022-10-05T20:01:54.133Z,82.17
2022-10-05T20:04:42.496Z,82.17
2022-10-05T20:07:14.802Z,82.08
2022-10-05T20:09:59.951Z,82.53
2022-10-05T20:12:52.679Z,82.34
2022-10-05T20:15:30.881Z,81.16
2022-10-05T20:17:57.588Z,81.62
2022-10-05T20:20:35.978Z,81.93
2022-10-05T20:23:24.793Z,82.73
2022-10-05T20:25:52.483Z,82.24
2022-10-05T20:28:32.294Z,83.05
2022-10-05T20:30:59.587Z,82.67
2022-10-05T20:33:29.209Z,82.72
2022-10-05T20:35:56.204Z,83.00
2022-10-05T20:38:23.008Z,83.05
2022-10-05T20:40:49.610Z,82.30
2022-10-05T20:43:16.235Z,82.07
2022-10-05T20:45:42.805Z,82.82
2022-10-05T20:48:11.831Z,82.60
2022-10-05T20:50:38.955Z,83.78
2022-10-05T20:53:11.612Z,82.50
2022-10-05T20:55:38.599Z,82.99
2022-10-05T20:58:05.220Z,83.35
2022-10-05T21:00:34.043Z,84.02
2022-10-05T21:03:00.785Z,83.31
2022-10-05T21:05:27.385Z,83.77
2022-10-05T21:07:53.948Z,83.53
2022-10-05T21:10:20.594Z,83.50
2022-10-05T21:12:47.169Z,83.40
2022-10-05T21:15:13.741Z,84.00
2022-10-05T21:17:40.323Z,83.11
2022-10-05T21:20:07.077Z,83.67
2022-10-05T21:22:33.704Z,83.93
2022-10-05T21:25:00.287Z,82.87
2022-10-05T21:27:26.867Z,82.93
2022-10-05T21:29:53.537Z,82.56
2022-10-05T21:32:20.196Z,83.52
2022-10-05T21:34:46.821Z,83.46
2022-10-05T21:37:13.442Z,83.62
2022-10-05T21:39:40.105Z,84.04
2022-10-05T21:42:06.681Z,83.61
2022-10-05T21:44:33.260Z,83.05
2022-10-05T21:46:59.910Z,82.89
2022-10-05T21:49:27.839Z,84.58
2022-10-05T21:51:54.562Z,83.76
2022-10-05T21:54:22.783Z,83.32
2022-10-05T21:56:53.477Z,84.17
2022-10-05T21:59:24.111Z,84.48
2022-10-05T22:01:50.731Z,83.25
2022-10-05T22:04:17.295Z,84.67
2022-10-05T22:06:43.994Z,84.72
2022-10-05T22:09:10.581Z,84.19
2022-10-05T22:11:37.167Z,83.62
2022-10-05T22:14:03.878Z,85.98
2022-10-05T22:16:33.805Z,84.78
2022-10-05T22:19:16.650Z,84.66
2022-10-05T22:21:43.247Z,85.69
2022-10-05T22:24:09.954Z,85.14
2022-10-05T22:26:36.738Z,85.15
2022-10-05T22:29:03.804Z,86.78
2022-10-05T22:31:30.676Z,87.02
2022-10-05T22:33:57.339Z,86.52
2022-10-05T22:36:24.028Z,86.18
2022-10-05T22:38:50.641Z,86.14
2022-10-05T22:41:17.291Z,86.84
2022-10-05T22:43:44.421Z,86.12
2022-10-05T22:46:12.222Z,87.12
2022-10-05T22:48:39.830Z,88.45
2022-10-05T22:51:07.168Z,88.46
2022-10-05T22:53:34.495Z,87.42
2022-10-05T22:59:23.199Z,88.62
2022-10-05T23:01:49.874Z,87.90
2022-10-05T23:04:16.467Z,88.41
2022-10-05T23:06:43.049Z,87.78
2022-10-05T23:09:09.646Z,87.51
2022-10-05T23:11:36.207Z,88.04
2022-10-05T23:14:02.941Z,86.91
2022-10-05T23:16:29.606Z,88.18
2022-10-05T23:18:57.263Z,87.66
2022-10-05T23:21:25.634Z,87.67
2022-10-05T23:23:52.204Z,89.88
2022-10-05T23:26:21.631Z,89.42
2022-10-05T23:28:48.779Z,89.17
2022-10-05T23:31:18.030Z,90.58
2022-10-05T23:33:44.784Z,88.96
2022-10-05T23:36:17.456Z,89.99
2022-10-05T23:38:44.541Z,89.02
2022-10-05T23:41:11.983Z,88.84
2022-10-05T23:43:38.993Z,89.65
2022-10-05T23:46:06.923Z,90.54
2022-10-05T23:48:34.655Z,89.76
2022-10-05T23:51:01.226Z,89.80
2022-10-05T23:53:27.891Z,90.16
2022-10-05T23:55:55.331Z,90.22
2022-10-05T23:58:22.725Z,90.48
